createdAt,value
2017-07-22T00:01:52.110Z,7.83
2017-07-22T00:06:56.101Z,8.23
2017-07-22T00:11:59.311Z,8.23
2017-07-22T00:17:02.528Z,8.63
2017-07-22T00:22:05.710Z,8.50
2017-07-22T00:27:08.947Z,10.07
2017-07-22T00:32:12.164Z,9.17
2017-07-22T00:37:16.141Z,9.20
2017-07-22T00:42:19.333Z,10.70
2017-07-22T00:47:22.530Z,9.60
2017-07-22T00:52:26.621Z,10.77
2017-07-22T00:57:29.845Z,11.83
2017-07-22T01:02:33.844Z,11.73
2017-07-22T01:07:37.063Z,11.47
2017-07-22T01:12:40.259Z,13.70
2017-07-22T01:17:43.461Z,13.37
2017-07-22T01:22:46.661Z,12.77
2017-07-22T01:27:49.853Z,12.63
2017-07-22T01:32:53.066Z,13.90
2017-07-22T01:37:56.277Z,13.40
2017-07-22T01:42:59.482Z,13.60
2017-07-22T01:48:02.692Z,13.87
2017-07-22T01:53:05.893Z,13.80
2017-07-22T01:58:09.085Z,14.60
2017-07-22T02:03:12.266Z,14.33
2017-07-22T02:08:15.441Z,14.07
2017-07-22T02:13:18.665Z,16.23
2017-07-22T02:18:22.827Z,15.47
2017-07-22T02:23:26.020Z,14.90
2017-07-22T02:28:29.237Z,15.00
2017-07-22T02:33:32.442Z,17.00
2017-07-22T02:38:35.658Z,14.67
2017-07-22T02:43:38.881Z,13.57
2017-07-22T02:48:42.088Z,13.20
2017-07-22T02:53:45.273Z,15.00
2017-07-22T02:58:48.495Z,14.40
2017-07-22T03:03:51.685Z,14.63
2017-07-22T03:08:54.873Z,15.67
2017-07-22T03:13:58.055Z,13.97
2017-07-22T03:19:02.014Z,14.43
2017-07-22T03:24:05.188Z,14.93
2017-07-22T03:29:09.146Z,14.90
2017-07-22T03:34:12.348Z,13.90
2017-07-22T03:39:15.537Z,13.70
2017-07-22T03:44:19.492Z,15.23
2017-07-22T03:49:22.686Z,14.23
2017-07-22T03:54:25.885Z,12.20
2017-07-22T03:59:29.827Z,11.97
2017-07-22T04:04:33.024Z,14.20
2017-07-22T04:09:36.231Z,13.63
2017-07-22T04:14:39.423Z,11.83
2017-07-22T04:19:43.383Z,14.87
2017-07-22T04:24:46.589Z,14.07
2017-07-22T04:29:49.784Z,13.93
2017-07-22T04:34:52.985Z,14.67
2017-07-22T04:39:56.192Z,14.27
2017-07-22T04:44:59.684Z,14.83
2017-07-22T04:50:03.721Z,13.80
2017-07-22T04:55:07.648Z,13.80
2017-07-22T05:00:10.843Z,13.57
2017-07-22T05:05:14.041Z,13.43
2017-07-22T05:10:18.010Z,13.67
2017-07-22T05:15:21.189Z,13.50
2017-07-22T05:20:24.397Z,13.83
2017-07-22T05:25:27.574Z,12.67
2017-07-22T05:30:30.784Z,13.43
2017-07-22T05:35:34.738Z,13.53
2017-07-22T05:40:37.945Z,13.17
2017-07-22T05:45:41.152Z,14.07
2017-07-22T05:50:44.369Z,15.70
2017-07-22T05:55:47.558Z,16.00
2017-07-22T06:00:50.933Z,18.40
2017-07-22T06:05:54.179Z,16.87
2017-07-22T06:10:57.484Z,16.70
2017-07-22T06:16:01.437Z,16.17
2017-07-22T06:21:04.609Z,17.30
2017-07-22T06:26:08.561Z,16.50
2017-07-22T06:31:11.757Z,17.73
2017-07-22T06:36:14.955Z,15.60
2017-07-22T06:41:18.211Z,17.23
2017-07-22T06:46:21.401Z,16.57
2017-07-22T06:51:24.630Z,15.63
2017-07-22T06:56:27.810Z,15.10
2017-07-22T07:01:31.028Z,13.23
2017-07-22T07:06:34.211Z,10.60
2017-07-22T07:11:37.419Z,12.67
2017-07-22T07:16:40.611Z,10.43
2017-07-22T07:21:43.840Z,8.30
2017-07-22T07:26:47.096Z,8.17
2017-07-22T07:31:51.067Z,7.27
2017-07-22T07:36:54.257Z,6.60
2017-07-22T07:41:57.468Z,5.07
2017-07-22T07:47:01.439Z,7.23
2017-07-22T07:52:04.645Z,4.50
2017-07-22T07:57:07.825Z,4.13
2017-07-22T08:02:11.024Z,4.13
2017-07-22T08:07:14.213Z,4.97
2017-07-22T08:12:17.404Z,4.00
2017-07-22T08:17:20.606Z,4.37
2017-07-22T08:22:24.615Z,3.77
2017-07-22T08:27:27.814Z,4.13
2017-07-22T08:32:30.988Z,3.30
2017-07-22T08:37:34.175Z,3.73
2017-07-22T08:42:37.370Z,4.60
2017-07-22T08:47:41.339Z,3.73
2017-07-22T08:52:44.596Z,5.00
2017-07-22T08:57:48.543Z,4.50
2017-07-22T09:02:51.720Z,4.13
2017-07-22T09:07:55.802Z,4.67
2017-07-22T09:12:59.003Z,5.63
2017-07-22T09:18:02.196Z,6.50
2017-07-22T09:23:05.588Z,6.33
2017-07-22T09:28:09.533Z,7.30
2017-07-22T09:33:12.766Z,6.50
2017-07-22T09:38:15.965Z,8.00
2017-07-22T09:43:19.173Z,8.00
2017-07-22T09:48:22.352Z,7.40
2017-07-22T09:53:25.555Z,7.63
2017-07-22T09:58:28.737Z,7.53
2017-07-22T10:03:32.687Z,7.53
2017-07-22T10:08:35.891Z,7.80
2017-07-22T10:13:39.068Z,9.00
2017-07-22T10:18:42.277Z,7.93
2017-07-22T10:23:45.429Z,8.73
2017-07-22T10:28:48.666Z,8.90
2017-07-22T10:33:51.852Z,7.57
2017-07-22T10:38:55.046Z,8.53
2017-07-22T10:43:58.253Z,8.70
2017-07-22T10:49:01.448Z,9.10
2017-07-22T10:54:04.678Z,8.83
2017-07-22T10:59:07.859Z,9.70
2017-07-22T11:04:11.073Z,9.73
2017-07-22T11:09:14.265Z,10.53
2017-07-22T11:14:17.831Z,9.57
2017-07-22T11:19:21.021Z,10.00
2017-07-22T11:24:24.238Z,10.23
2017-07-22T11:29:27.504Z,10.67
2017-07-22T11:34:31.470Z,8.73
2017-07-22T11:39:34.663Z,8.93
2017-07-22T11:44:37.856Z,8.87
2017-07-22T11:49:41.051Z,7.37
2017-07-22T11:54:44.252Z,5.90
2017-07-22T11:59:47.427Z,4.50
2017-07-22T12:04:50.626Z,4.23
2017-07-22T12:09:53.820Z,4.40
2017-07-22T12:14:57.016Z,4.40
2017-07-22T12:20:00.229Z,4.73
2017-07-22T12:25:03.435Z,4.10
2017-07-22T12:30:06.630Z,4.10
2017-07-22T12:35:09.838Z,3.90
2017-07-22T12:40:13.027Z,4.10
2017-07-22T12:45:16.212Z,4.40
2017-07-22T12:50:20.174Z,4.37
2017-07-22T12:55:23.383Z,4.37
2017-07-22T13:00:26.577Z,4.47
2017-07-22T13:05:29.785Z,4.93
2017-07-22T13:10:32.964Z,4.80
2017-07-22T13:15:36.952Z,4.97
2017-07-22T13:20:40.211Z,4.50
2017-07-22T13:25:43.422Z,4.17
2017-07-22T13:30:46.676Z,4.30
2017-07-22T13:35:49.897Z,4.67
2017-07-22T13:40:53.118Z,4.77
2017-07-22T13:45:56.309Z,6.30
2017-07-22T13:50:59.544Z,5.97
2017-07-22T13:56:02.742Z,5.90
2017-07-22T14:01:06.720Z,6.20
2017-07-22T14:06:09.909Z,6.80
2017-07-22T14:11:13.114Z,6.57
2017-07-22T14:16:16.315Z,6.53
2017-07-22T14:21:19.506Z,6.10
2017-07-22T14:26:23.528Z,6.23
2017-07-22T14:31:27.490Z,5.57
2017-07-22T14:36:30.787Z,13.33
2017-07-22T14:41:33.980Z,8.00
2017-07-22T14:46:37.167Z,6.00
2017-07-22T14:51:40.357Z,7.60
2017-07-22T14:56:43.601Z,11.80
2017-07-22T15:01:47.541Z,9.80
2017-07-22T15:06:50.750Z,6.33
2017-07-22T15:11:53.957Z,6.70
2017-07-22T15:16:57.205Z,22.17
2017-07-22T15:22:00.423Z,14.00
2017-07-22T15:27:03.752Z,7.10
2017-07-22T15:32:07.721Z,11.23
2017-07-22T15:37:10.899Z,7.27
2017-07-22T15:42:14.129Z,12.10
2017-07-22T15:47:17.320Z,5.60
2017-07-22T15:52:20.548Z,5.47
2017-07-22T15:57:23.748Z,7.63
2017-07-22T16:02:26.949Z,7.73
2017-07-22T16:07:30.143Z,5.73
2017-07-22T16:12:33.323Z,6.37
2017-07-22T16:17:37.279Z,6.00
2017-07-22T16:22:40.478Z,10.87
2017-07-22T16:27:43.690Z,9.47
2017-07-22T16:32:46.882Z,7.10
2017-07-22T16:37:50.139Z,6.43
2017-07-22T16:42:53.342Z,9.20
2017-07-22T16:47:56.547Z,9.20
2017-07-22T16:52:59.776Z,6.83
2017-07-22T16:58:02.985Z,7.23
2017-07-22T17:03:06.200Z,7.67
2017-07-22T17:08:09.411Z,9.17
2017-07-22T17:13:13.488Z,9.50
2017-07-22T17:18:16.783Z,8.50
2017-07-22T17:23:19.995Z,6.97
2017-07-22T17:28:23.204Z,7.23
2017-07-22T17:33:26.423Z,7.70
2017-07-22T17:38:29.632Z,7.07
2017-07-22T17:43:32.849Z,7.27
2017-07-22T17:48:36.043Z,8.37
2017-07-22T17:53:39.311Z,7.97
2017-07-22T17:58:43.287Z,7.53
2017-07-22T18:03:46.501Z,7.77
2017-07-22T18:08:49.708Z,7.20
2017-07-22T18:13:52.922Z,8.00
2017-07-22T18:18:56.338Z,6.73
2017-07-22T18:23:59.530Z,6.60
2017-07-22T18:29:02.742Z,6.87
2017-07-22T18:34:05.941Z,28.37
2017-07-22T18:39:09.119Z,9.50
2017-07-22T18:44:12.349Z,10.07
2017-07-22T18:49:15.545Z,9.73
2017-07-22T18:54:18.738Z,7.73
2017-07-22T18:59:21.963Z,9.40
2017-07-22T19:04:25.217Z,11.13
2017-07-22T19:09:29.212Z,8.47
2017-07-22T19:14:32.419Z,8.30
2017-07-22T19:19:35.659Z,8.67
2017-07-22T19:24:38.860Z,9.17
2017-07-22T19:29:42.094Z,8.80
2017-07-22T19:34:45.289Z,9.70
2017-07-22T19:39:49.242Z,10.27
2017-07-22T19:44:52.451Z,8.83
2017-07-22T19:49:55.734Z,10.23
2017-07-22T19:54:59.672Z,7.83
2017-07-22T20:00:02.907Z,8.10
2017-07-22T20:05:06.114Z,8.37
2017-07-22T20:10:09.343Z,8.27
2017-07-22T20:15:12.562Z,7.80
2017-07-22T20:20:15.777Z,7.77
2017-07-22T20:25:19.741Z,8.60
2017-07-22T20:30:22.940Z,8.77
2017-07-22T20:35:26.076Z,8.60
2017-07-22T20:40:29.256Z,9.10
2017-07-22T20:45:32.442Z,8.00
2017-07-22T20:50:36.402Z,8.40
2017-07-22T20:55:39.570Z,8.83
2017-07-22T21:00:42.743Z,9.10
2017-07-22T21:05:45.957Z,11.40
2017-07-22T21:10:49.189Z,10.10
2017-07-22T21:15:53.177Z,12.20
2017-07-22T21:20:56.378Z,9.97
2017-07-22T21:25:59.602Z,11.10
2017-07-22T21:31:02.796Z,11.30
2017-07-22T21:36:06.001Z,10.40
2017-07-22T21:41:09.201Z,11.37
2017-07-22T21:46:12.414Z,10.27
2017-07-22T21:51:15.609Z,10.27
2017-07-22T21:56:18.798Z,11.30
2017-07-22T22:01:22.019Z,10.90
2017-07-22T22:06:25.330Z,11.40
2017-07-22T22:11:28.530Z,11.80
2017-07-22T22:16:32.026Z,10.70
2017-07-22T22:21:35.164Z,12.07
2017-07-22T22:26:38.373Z,11.33
2017-07-22T22:31:41.562Z,12.70
2017-07-22T22:36:44.859Z,6.80
2017-07-22T22:41:48.023Z,3.70
2017-07-22T22:46:51.995Z,4.27
2017-07-22T22:51:55.154Z,4.20
2017-07-22T22:56:59.094Z,5.10
2017-07-22T23:02:02.289Z,5.20
2017-07-22T23:07:06.393Z,4.70
2017-07-22T23:12:09.600Z,4.80
2017-07-22T23:17:12.782Z,4.70
2017-07-22T23:22:15.973Z,4.63
2017-07-22T23:27:19.189Z,3.80
2017-07-22T23:32:22.434Z,4.13
2017-07-22T23:37:25.676Z,4.97
2017-07-22T23:42:28.863Z,5.73
2017-07-22T23:47:32.887Z,6.40
2017-07-22T23:52:36.192Z,5.80
2017-07-22T23:57:39.384Z,6.40
